Time;durP1;ratioP1;P1;durP2;ratioP2;P2;SDS_P1;SDS_P2;PMS_P1;PMS_P2;Temp;Humidity;BMP_temperature;BMP_pressure;BME280_temperature;BME280_humidity;BME280_pressure;Samples;Min_cycle;Max_cycle;Signal;HPM_P1;HPM_P2
2021/08/07 00:00:21;;;;;;;6.67;1.03;;;;;;;14.21;100.00;95178.28;5052943;28;20536;-74
2021/08/07 00:02:47;;;;;;;1.57;1.07;;;;;;;14.32;100.00;95176.53;5051936;28;20432;-74
2021/08/07 00:05:12;;;;;;;1.30;0.90;;;;;;;14.32;100.00;95173.94;5053093;28;20417;-75
2021/08/07 00:07:38;;;;;;;1.52;1.00;;;;;;;14.28;100.00;95162.97;5052710;28;20449;-75
2021/08/07 00:10:05;;;;;;;2.17;1.23;;;;;;;14.32;100.00;95171.34;5051488;28;20786;-75
2021/08/07 00:12:31;;;;;;;5.95;1.05;;;;;;;14.38;100.00;95161.19;5053173;28;20413;-74
2021/08/07 00:14:57;;;;;;;3.28;0.93;;;;;;;14.44;100.00;95157.22;5045961;28;20504;-74
2021/08/07 00:17:22;;;;;;;2.37;1.23;;;;;;;14.58;98.07;95146.44;5050924;28;21082;-75
2021/08/07 00:19:48;;;;;;;2.75;1.20;;;;;;;14.43;99.26;95150.38;5052671;28;20860;-74
2021/08/07 00:22:15;;;;;;;2.50;1.10;;;;;;;14.21;100.00;95152.25;5052891;28;20906;-75
2021/08/07 00:24:40;;;;;;;2.97;1.08;;;;;;;14.20;99.86;95157.56;5052728;28;20432;-74
2021/08/07 00:27:06;;;;;;;3.17;1.17;;;;;;;14.13;99.76;95162.50;5052714;28;20798;-75
2021/08/07 00:29:35;;;;;;;3.20;1.15;;;;;;;14.05;100.00;95154.50;5052708;28;20405;-75
2021/08/07 00:32:00;;;;;;;3.90;1.00;;;;;;;14.10;100.00;95156.75;5052628;28;20428;-74
2021/08/07 00:34:26;;;;;;;1.87;1.03;;;;;;;14.10;100.00;95154.16;5051369;28;20798;-75
2021/08/07 00:36:51;;;;;;;2.40;1.00;;;;;;;14.08;100.00;95149.06;5052146;28;20431;-75
2021/08/07 00:39:17;;;;;;;2.33;1.10;;;;;;;14.13;100.00;95138.25;5052499;28;20428;-75
2021/08/07 00:41:42;;;;;;;2.17;1.00;;;;;;;13.97;100.00;95138.75;5051103;28;20934;-75
2021/08/07 00:44:08;;;;;;;2.37;1.03;;;;;;;13.86;100.00;95149.25;5052302;28;20975;-75
2021/08/07 00:46:34;;;;;;;3.67;0.90;;;;;;;13.99;100.00;95153.28;5050642;28;20983;-75
2021/08/07 00:49:00;;;;;;;2.75;1.10;;;;;;;14.01;100.00;95155.75;5050887;28;20479;-75
2021/08/07 00:51:25;;;;;;;2.60;1.10;;;;;;;14.09;100.00;95147.25;5052462;28;20918;-75
2021/08/07 00:53:51;;;;;;;2.20;1.15;;;;;;;14.11;100.00;95140.97;5050981;28;20984;-75
2021/08/07 00:56:16;;;;;;;1.20;0.97;;;;;;;14.11;100.00;95135.78;5051967;28;20427;-76
2021/08/07 00:58:41;;;;;;;2.53;0.90;;;;;;;14.18;100.00;95142.09;5051886;28;20413;-75
2021/08/07 01:01:14;;;;;;;1.70;1.00;;;;;;;14.18;100.00;95130.84;5051902;28;20864;-75
2021/08/07 01:03:45;;;;;;;3.80;1.10;;;;;;;14.20;100.00;95134.97;5052140;28;20418;-75
2021/08/07 01:06:19;;;;;;;4.63;1.02;;;;;;;14.18;100.00;95131.69;5051502;28;20421;-75
2021/08/07 01:08:52;;;;;;;2.63;1.13;;;;;;;14.28;100.00;95136.91;5051996;28;20421;-75
2021/08/07 01:11:25;;;;;;;1.80;1.10;;;;;;;14.28;100.00;95119.50;5051804;28;20451;-75
2021/08/07 01:13:56;;;;;;;4.70;0.90;;;;;;;14.30;100.00;95119.34;5050427;28;20472;-75
2021/08/07 01:16:25;;;;;;;2.05;1.00;;;;;;;14.22;100.00;95122.63;5051488;28;20504;-74
2021/08/07 01:18:53;;;;;;;2.50;0.90;;;;;;;14.22;100.00;95120.03;5043255;28;20875;-75
2021/08/07 01:21:25;;;;;;;1.92;0.90;;;;;;;14.14;100.00;95125.09;5051596;28;20417;-75
2021/08/07 01:23:53;;;;;;;1.50;1.00;;;;;;;14.06;100.00;95132.75;5051684;28;20432;-75
2021/08/07 01:26:26;;;;;;;3.28;1.20;;;;;;;13.83;100.00;95126.09;5051253;28;20420;-75
2021/08/07 01:28:56;;;;;;;1.55;1.00;;;;;;;13.67;100.00;95117.00;5051676;28;20520;-75
2021/08/07 01:31:23;;;;;;;3.30;1.20;;;;;;;13.69;100.00;95124.69;5051435;28;20413;-75
2021/08/07 01:33:49;;;;;;;4.15;1.17;;;;;;;13.89;100.00;95115.97;5051207;28;20429;-75
2021/08/07 01:36:16;;;;;;;2.03;0.93;;;;;;;13.97;100.00;95107.50;5051304;28;20429;-75
2021/08/07 01:38:44;;;;;;;4.25;1.20;;;;;;;14.05;100.00;95105.03;5050855;28;20479;-75
2021/08/07 01:41:14;;;;;;;4.65;1.30;;;;;;;14.11;100.00;95111.50;5051391;28;20983;-75
2021/08/07 01:43:40;;;;;;;2.00;1.20;;;;;;;14.10;100.00;95104.66;5050065;28;20422;-74
2021/08/07 01:46:07;;;;;;;3.00;1.20;;;;;;;13.92;100.00;95110.50;5049830;28;20487;-74
2021/08/07 01:48:39;;;;;;;2.10;1.10;;;;;;;13.79;100.00;95102.94;5050955;28;20413;-75
2021/08/07 01:51:09;;;;;;;3.05;1.25;;;;;;;13.96;100.00;95105.84;5050976;28;20421;-74
2021/08/07 01:53:35;;;;;;;2.00;1.08;;;;;;;14.04;100.00;95112.03;5049533;28;20425;-74
2021/08/07 01:56:04;;;;;;;4.38;1.10;;;;;;;14.04;100.00;95111.22;5050776;28;20432;-75
2021/08/07 01:58:33;;;;;;;2.50;1.10;;;;;;;13.93;100.00;95112.16;5050500;28;20413;-75
2021/08/07 02:00:59;;;;;;;2.90;1.15;;;;;;;13.77;100.00;95097.03;5051021;28;20520;-75
2021/08/07 02:03:28;;;;;;;1.67;0.98;;;;;;;13.74;100.00;95106.88;5050719;28;20417;-75
2021/08/07 02:05:53;;;;;;;2.20;1.25;;;;;;;13.84;100.00;95109.53;5049435;28;20432;-75
2021/08/07 02:08:19;;;;;;;2.27;1.10;;;;;;;13.93;100.00;95106.94;5050656;28;20429;-74
2021/08/07 02:10:47;;;;;;;1.47;0.90;;;;;;;14.02;100.00;95108.75;5050516;28;20453;-74
2021/08/07 02:13:14;;;;;;;2.10;1.05;;;;;;;14.08;100.00;95096.16;5050477;28;20424;-74
2021/08/07 02:15:40;;;;;;;2.20;1.10;;;;;;;14.12;100.00;95092.31;5048470;28;20433;-74
2021/08/07 02:18:07;;;;;;;2.38;1.30;;;;;;;14.18;100.00;95086.59;5050531;28;20420;-75
2021/08/07 02:20:34;;;;;;;2.30;1.02;;;;;;;14.29;100.00;95082.06;5050349;28;20471;-74
2021/08/07 02:22:59;;;;;;;7.13;1.10;;;;;;;14.45;100.00;95085.91;5050599;28;20925;-75
2021/08/07 02:25:25;;;;;;;2.67;1.03;;;;;;;14.27;100.00;95093.56;5049922;28;20425;-75
2021/08/07 02:27:51;;;;;;;2.53;1.35;;;;;;;14.20;100.00;95087.25;5050190;28;20756;-75
2021/08/07 02:30:18;;;;;;;3.47;1.20;;;;;;;13.98;100.00;95091.75;5050561;28;20420;-75
2021/08/07 02:32:44;;;;;;;2.63;1.40;;;;;;;13.79;100.00;95082.13;5050243;28;20938;-75
2021/08/07 02:35:12;;;;;;;3.25;1.38;;;;;;;13.71;100.00;95091.53;5049939;28;20429;-75
2021/08/07 02:37:41;;;;;;;4.38;1.52;;;;;;;13.60;100.00;95082.03;5050271;28;20413;-75
2021/08/07 02:40:09;;;;;;;2.80;1.23;;;;;;;13.55;100.00;95072.03;5048889;28;20413;-75
2021/08/07 02:42:35;;;;;;;2.30;1.10;;;;;;;13.67;100.00;95087.56;5050202;28;20903;-75
2021/08/07 02:45:02;;;;;;;1.95;1.27;;;;;;;13.78;100.00;95084.84;5050228;28;20413;-75
2021/08/07 02:47:29;;;;;;;1.58;1.02;;;;;;;13.96;100.00;95077.22;5048478;28;20463;-75
2021/08/07 02:49:54;;;;;;;3.65;1.55;;;;;;;13.94;100.00;95073.91;5050125;28;20417;-75
2021/08/07 02:52:20;;;;;;;1.80;0.98;;;;;;;13.92;100.00;95073.25;5038406;28;20428;-75
2021/08/07 02:54:49;;;;;;;2.03;1.20;;;;;;;13.82;100.00;95065.41;5041441;28;20826;-75
2021/08/07 02:57:15;;;;;;;2.33;1.30;;;;;;;13.57;100.00;95056.28;5048495;28;20891;-75
2021/08/07 02:59:40;;;;;;;2.63;1.20;;;;;;;13.63;100.00;95058.38;5048637;28;20423;-75
2021/08/07 03:02:07;;;;;;;3.73;1.10;;;;;;;13.56;100.00;95057.25;5050096;28;20486;-74
2021/08/07 03:04:33;;;;;;;2.50;1.20;;;;;;;13.56;100.00;95057.25;5043517;28;20438;-75
2021/08/07 03:06:58;;;;;;;3.10;1.07;;;;;;;13.66;100.00;95062.50;5053116;28;20413;-75
2021/08/07 03:09:24;;;;;;;1.97;1.00;;;;;;;13.74;100.00;95057.44;5053783;28;20953;-75
2021/08/07 03:11:50;;;;;;;1.90;1.07;;;;;;;13.70;100.00;95061.25;5053530;28;20440;-75
2021/08/07 03:14:16;;;;;;;2.20;0.90;;;;;;;13.76;100.00;95073.75;5052855;28;20421;-75
2021/08/07 03:16:41;;;;;;;2.87;1.27;;;;;;;13.63;100.00;95063.56;5052173;28;21104;-75
2021/08/07 03:19:07;;;;;;;4.95;1.30;;;;;;;13.69;100.00;95057.03;5052628;28;20459;-75
2021/08/07 03:21:32;;;;;;;2.22;1.10;;;;;;;13.71;100.00;95053.31;5053395;28;20515;-75
2021/08/07 03:23:58;;;;;;;2.20;1.10;;;;;;;13.68;100.00;95050.16;5053753;28;20863;-75
2021/08/07 03:26:23;;;;;;;4.10;1.33;;;;;;;13.88;100.00;95048.44;5051860;28;20428;-75
2021/08/07 03:28:51;;;;;;;2.60;1.17;;;;;;;13.96;100.00;95051.19;5053581;28;20498;-75
2021/08/07 03:31:16;;;;;;;4.22;1.20;;;;;;;13.88;100.00;95051.03;5053387;28;20423;-75
2021/08/07 03:33:42;;;;;;;5.70;1.10;;;;;;;13.87;100.00;95036.38;5052188;28;20504;-75
2021/08/07 03:36:07;;;;;;;3.30;1.40;;;;;;;13.82;100.00;95041.97;5053087;28;20774;-75
2021/08/07 03:38:33;;;;;;;2.63;1.20;;;;;;;13.70;100.00;95051.69;5053448;28;20752;-75
2021/08/07 03:40:58;;;;;;;2.10;1.10;;;;;;;13.60;100.00;95045.63;5052154;28;20425;-75
2021/08/07 03:43:24;;;;;;;1.83;1.00;;;;;;;13.61;100.00;95046.44;5053497;28;20445;-75
2021/08/07 03:45:51;;;;;;;2.00;1.13;;;;;;;13.60;100.00;95045.63;5053090;28;20464;-75
2021/08/07 03:48:16;;;;;;;4.03;1.30;;;;;;;13.65;100.00;95040.84;5053097;28;20499;-75
2021/08/07 03:50:42;;;;;;;2.37;1.10;;;;;;;13.45;100.00;95042.56;5053405;28;20444;-75
2021/08/07 03:53:07;;;;;;;3.80;1.30;;;;;;;13.38;100.00;95048.41;5052824;28;20985;-75
2021/08/07 03:55:33;;;;;;;1.90;1.30;;;;;;;13.29;100.00;95039.63;5052889;28;20827;-75
2021/08/07 03:57:59;;;;;;;3.00;1.40;;;;;;;13.48;100.00;95031.06;5051695;28;20930;-74
2021/08/07 04:00:27;;;;;;;1.98;1.30;;;;;;;13.59;100.00;95040.56;5051695;28;20425;-74
2021/08/07 04:02:54;;;;;;;8.80;1.52;;;;;;;13.56;100.00;95044.25;5051676;28;20437;-74
2021/08/07 04:05:19;;;;;;;2.88;1.13;;;;;;;13.62;100.00;95032.50;5053015;28;20460;-74
2021/08/07 04:07:45;;;;;;;2.17;1.20;;;;;;;13.66;100.00;95033.88;5052709;28;20453;-75
2021/08/07 04:10:12;;;;;;;2.55;1.00;;;;;;;13.70;100.00;95027.44;5052666;28;20825;-75
2021/08/07 04:12:38;;;;;;;2.42;1.20;;;;;;;13.62;100.00;95035.91;5052755;28;20453;-75
2021/08/07 04:15:05;;;;;;;1.85;1.10;;;;;;;13.69;100.00;95018.81;5052570;28;20460;-75
2021/08/07 04:17:31;;;;;;;1.27;1.10;;;;;;;13.72;100.00;95026.34;5050029;28;20417;-74
2021/08/07 04:19:58;;;;;;;2.50;1.10;;;;;;;13.76;100.00;95019.94;5044460;28;20433;-74
2021/08/07 04:22:23;;;;;;;2.60;1.20;;;;;;;13.75;100.00;95010.44;5052494;28;20417;-74
2021/08/07 04:24:49;;;;;;;2.60;1.30;;;;;;;13.74;100.00;95001.00;5052761;28;20416;-74
2021/08/07 04:27:14;;;;;;;6.63;1.20;;;;;;;13.77;100.00;94998.13;5052248;28;20556;-74
2021/08/07 04:29:40;;;;;;;2.57;1.10;;;;;;;13.98;100.00;94990.22;5052671;28;20421;-75
2021/08/07 04:32:05;;;;;;;3.50;0.98;;;;;;;13.82;100.00;94989.91;5052107;28;20475;-75
2021/08/07 04:34:31;;;;;;;4.47;1.10;;;;;;;13.44;100.00;94988.06;5050990;28;20429;-75
2021/08/07 04:36:57;;;;;;;4.43;1.30;;;;;;;13.14;100.00;94989.72;5051147;28;20445;-75
2021/08/07 04:39:23;;;;;;;3.50;0.97;;;;;;;13.32;100.00;94998.59;5052220;28;20464;-75
2021/08/07 04:41:49;;;;;;;3.30;1.10;;;;;;;13.39;100.00;95016.28;5051064;28;20424;-75
2021/08/07 04:44:14;;;;;;;2.28;0.98;;;;;;;13.38;100.00;95014.59;5052337;28;20467;-75
2021/08/07 04:46:40;;;;;;;2.87;1.10;;;;;;;13.43;100.00;95031.47;5051632;28;20424;-74
2021/08/07 04:49:05;;;;;;;3.90;1.60;;;;;;;13.23;100.00;95030.56;5050803;28;20528;-75
2021/08/07 04:51:31;;;;;;;1.90;1.00;;;;;;;13.16;100.00;95036.38;5052259;28;20445;-74
2021/08/07 04:53:57;;;;;;;5.17;1.20;;;;;;;13.24;100.00;95032.22;5050918;28;20445;-74
2021/08/07 04:56:23;;;;;;;2.47;0.82;;;;;;;13.19;100.00;95036.94;5050724;28;20798;-74
2021/08/07 04:58:48;;;;;;;3.33;1.25;;;;;;;13.23;100.00;95035.75;5051779;28;20439;-74
2021/08/07 05:01:13;;;;;;;1.50;1.00;;;;;;;13.40;100.00;95028.31;5050390;28;20413;-74
2021/08/07 05:03:39;;;;;;;1.90;0.90;;;;;;;13.51;100.00;95023.00;5052205;28;20440;-74
2021/08/07 05:06:04;;;;;;;1.73;1.03;;;;;;;13.48;100.00;95016.28;5051387;28;20504;-74
2021/08/07 05:08:30;;;;;;;3.10;1.30;;;;;;;13.50;100.00;95016.16;5050540;28;20459;-74
2021/08/07 05:10:57;;;;;;;3.53;1.27;;;;;;;13.36;100.00;95009.53;5051064;28;20409;-74
2021/08/07 05:13:22;;;;;;;3.63;1.20;;;;;;;13.37;100.00;95005.97;5051675;28;20976;-74
2021/08/07 05:15:47;;;;;;;2.15;1.05;;;;;;;13.43;100.00;95004.66;5047917;28;20421;-74
2021/08/07 05:18:13;;;;;;;2.50;1.30;;;;;;;13.61;100.00;95008.25;5037888;28;20432;-75
2021/08/07 05:20:39;;;;;;;2.40;1.20;;;;;;;13.71;100.00;95011.69;5045180;28;20949;-74
2021/08/07 05:23:04;;;;;;;2.00;1.17;;;;;;;13.69;100.00;95013.59;5043687;28;20407;-74
2021/08/07 05:25:30;;;;;;;4.07;1.07;;;;;;;13.61;100.00;95010.00;5051706;28;20412;-74
2021/08/07 05:27:56;;;;;;;3.60;1.30;;;;;;;13.68;100.00;94998.13;5033700;28;20836;-74
2021/08/07 05:30:22;;;;;;;4.35;1.20;;;;;;;13.83;100.00;95001.16;5031933;28;20439;-74
2021/08/07 05:32:48;;;;;;;1.90;1.05;;;;;;;13.93;100.00;95002.00;5034555;28;20855;-74
2021/08/07 05:35:14;;;;;;;2.23;1.13;;;;;;;14.11;100.00;94986.53;5051326;28;20429;-74
2021/08/07 05:37:40;;;;;;;4.33;1.30;;;;;;;14.09;100.00;94991.88;5051713;28;20405;-74
2021/08/07 05:40:06;;;;;;;5.00;1.10;;;;;;;14.32;100.00;94999.41;5051292;28;20461;-74
2021/08/07 05:42:32;;;;;;;2.27;1.40;;;;;;;14.11;100.00;95008.19;5051127;28;20417;-74
2021/08/07 05:44:58;;;;;;;2.53;1.23;;;;;;;14.02;100.00;95022.03;5049985;28;20486;-74
2021/08/07 05:47:24;;;;;;;2.40;1.08;;;;;;;14.06;100.00;95017.38;5051033;28;20462;-74
2021/08/07 05:49:49;;;;;;;5.50;1.47;;;;;;;13.98;100.00;95011.06;5051185;28;20857;-74
2021/08/07 05:52:15;;;;;;;2.40;1.02;;;;;;;14.08;100.00;95011.03;5051196;28;20421;-74
2021/08/07 05:54:40;;;;;;;3.28;1.25;;;;;;;14.20;100.00;95019.53;5051348;28;20424;-75
2021/08/07 05:57:05;;;;;;;2.37;1.13;;;;;;;14.36;100.00;95014.63;5047247;28;20436;-74
2021/08/07 05:59:31;;;;;;;2.23;1.03;;;;;;;14.46;100.00;95025.88;5049758;28;20417;-74
2021/08/07 06:01:58;;;;;;;3.17;1.20;;;;;;;14.63;100.00;95021.75;5049680;28;20567;-75
2021/08/07 06:04:23;;;;;;;4.68;1.17;;;;;;;14.70;100.00;95035.88;5050916;28;20427;-74
2021/08/07 06:06:48;;;;;;;21.95;1.40;;;;;;;14.60;100.00;95022.03;5050521;28;20499;-74
2021/08/07 06:09:14;;;;;;;2.40;1.30;;;;;;;14.61;100.00;95020.25;5049477;28;21000;-75
2021/08/07 06:11:39;;;;;;;2.30;1.20;;;;;;;14.74;100.00;95012.97;5043019;28;20429;-75
2021/08/07 06:14:05;;;;;;;4.70;1.30;;;;;;;14.76;100.00;95004.06;5049425;28;20516;-74
2021/08/07 06:16:31;;;;;;;3.20;1.20;;;;;;;14.94;100.00;94998.09;5045749;28;20512;-74
2021/08/07 06:18:59;;;;;;;3.00;1.50;;;;;;;15.23;100.00;94985.78;5044569;28;22350;-74
2021/08/07 06:21:25;;;;;;;1.77;1.17;;;;;;;15.44;99.43;94984.72;5050792;28;20467;-74
2021/08/07 06:23:50;;;;;;;2.87;1.30;;;;;;;15.80;100.00;94990.06;5042701;28;20810;-74
2021/08/07 06:26:16;;;;;;;2.83;1.20;;;;;;;15.83;96.07;94990.56;5050679;28;20441;-74
2021/08/07 06:28:41;;;;;;;2.80;1.20;;;;;;;15.88;95.57;94980.53;5049664;28;20456;-73
2021/08/07 06:31:07;;;;;;;4.05;1.50;;;;;;;16.12;94.14;94971.25;5045890;28;20410;-74
2021/08/07 06:33:32;;;;;;;4.30;1.30;;;;;;;16.39;89.45;94970.38;5032604;28;20412;-74
2021/08/07 06:36:00;;;;;;;2.53;1.40;;;;;;;16.40;90.41;94980.66;5043088;28;20516;-74
2021/08/07 06:38:26;;;;;;;7.72;1.33;;;;;;;16.42;88.11;94970.03;5050265;28;20930;-74
2021/08/07 06:40:51;;;;;;;3.93;1.30;;;;;;;16.51;87.16;94971.75;5050420;28;20449;-74
2021/08/07 06:43:18;;;;;;;2.77;1.10;;;;;;;16.58;86.17;94977.22;5050310;28;20474;-74
2021/08/07 06:45:43;;;;;;;6.25;1.40;;;;;;;16.70;86.69;94982.03;5048562;28;20429;-74
2021/08/07 06:48:09;;;;;;;2.47;1.27;;;;;;;16.61;86.49;94975.13;5050557;28;20428;-74
2021/08/07 06:50:34;;;;;;;7.67;1.43;;;;;;;16.66;87.43;94967.63;5050047;28;20466;-74
2021/08/07 06:53:01;;;;;;;3.07;1.13;;;;;;;16.76;86.91;94977.19;5049350;28;20523;-74
2021/08/07 06:55:26;;;;;;;4.13;1.20;;;;;;;16.90;85.28;94984.47;5050503;28;20512;-73
2021/08/07 06:57:52;;;;;;;3.30;1.40;;;;;;;17.09;86.82;94984.28;5050582;28;20500;-73
2021/08/07 07:00:17;;;;;;;2.47;1.23;;;;;;;17.13;83.46;94983.00;5050489;28;20424;-74
2021/08/07 07:02:43;;;;;;;2.45;1.08;;;;;;;17.46;81.38;94990.97;5049324;28;20421;-73
2021/08/07 07:05:09;;;;;;;4.83;1.30;;;;;;;17.79;81.41;94986.69;5049783;28;20449;-73
2021/08/07 07:07:36;;;;;;;3.45;1.27;;;;;;;17.48;81.34;95003.91;5048957;28;20428;-74
2021/08/07 07:10:05;;;;;;;3.72;1.33;;;;;;;17.68;81.46;95002.66;5049857;28;20424;-73
2021/08/07 07:12:31;;;;;;;3.67;1.23;;;;;;;17.82;81.57;95003.91;5050051;28;20435;-73
2021/08/07 07:14:56;;;;;;;4.60;1.37;;;;;;;17.82;82.55;95001.28;5047297;28;20427;-73
2021/08/07 07:17:24;;;;;;;3.17;1.30;;;;;;;17.73;83.54;95013.50;5048467;28;20512;-73
2021/08/07 07:19:50;;;;;;;3.13;1.30;;;;;;;17.36;85.48;95017.28;5049997;28;20413;-74
2021/08/07 07:22:15;;;;;;;3.50;1.53;;;;;;;17.38;84.42;95014.50;5040154;28;20473;-74
2021/08/07 07:24:40;;;;;;;2.23;1.33;;;;;;;17.17;84.08;95017.50;5048923;28;20417;-74
2021/08/07 07:27:07;;;;;;;2.43;1.40;;;;;;;17.09;85.83;95023.53;5048623;28;20487;-75
2021/08/07 07:29:33;;;;;;;4.57;1.37;;;;;;;17.01;85.59;95017.41;5050313;28;20647;-74
2021/08/07 07:31:58;;;;;;;4.23;1.37;;;;;;;16.97;86.45;95014.25;5050173;28;20425;-74
2021/08/07 07:34:24;;;;;;;2.17;1.27;;;;;;;17.02;86.40;95009.41;5048893;28;20817;-74
2021/08/07 07:36:49;;;;;;;2.33;1.10;;;;;;;17.04;86.70;95006.63;5048772;28;20417;-74
2021/08/07 07:39:15;;;;;;;2.80;1.30;;;;;;;17.12;84.60;95004.06;5050286;28;20446;-75
2021/08/07 07:41:40;;;;;;;3.95;1.55;;;;;;;17.20;84.58;94996.25;5050137;28;20416;-74
2021/08/07 07:44:07;;;;;;;3.43;1.73;;;;;;;17.25;84.35;94982.72;5050199;28;21093;-74
2021/08/07 07:46:32;;;;;;;3.75;1.75;;;;;;;17.72;81.85;94980.41;5049512;28;20417;-74
2021/08/07 07:48:58;;;;;;;7.00;1.70;;;;;;;17.72;83.55;94972.56;5049894;28;20504;-75
2021/08/07 07:51:23;;;;;;;5.27;1.40;;;;;;;17.80;82.96;94970.03;5051825;28;20443;-74
2021/08/07 07:53:49;;;;;;;3.40;1.30;;;;;;;17.91;81.54;94968.91;5053925;28;20421;-74
2021/08/07 07:56:14;;;;;;;1.77;1.00;;;;;;;18.07;82.42;94958.44;5052070;28;20510;-74
2021/08/07 07:58:39;;;;;;;3.23;1.40;;;;;;;18.21;83.03;94950.94;5052356;28;20416;-74
2021/08/07 08:01:06;;;;;;;4.73;1.53;;;;;;;18.27;79.52;94951.06;5053392;28;20475;-74
2021/08/07 08:03:32;;;;;;;3.40;1.67;;;;;;;18.40;79.81;94942.72;5053758;28;20504;-74
2021/08/07 08:05:57;;;;;;;3.03;1.40;;;;;;;18.46;76.95;94956.97;5053334;28;20492;-74
2021/08/07 08:08:22;;;;;;;3.37;1.50;;;;;;;18.29;76.55;94950.94;5052321;28;21158;-74
2021/08/07 08:10:48;;;;;;;3.33;1.70;;;;;;;18.18;77.90;94949.44;5053417;28;20417;-74
2021/08/07 08:13:13;;;;;;;2.63;1.30;;;;;;;18.25;76.42;94952.25;5051930;28;20432;-74
2021/08/07 08:15:40;;;;;;;4.53;1.57;;;;;;;18.37;76.47;94943.88;5053300;28;21009;-74
2021/08/07 08:18:09;;;;;;;6.03;1.70;;;;;;;18.34;78.36;94952.06;5052023;28;20459;-74
2021/08/07 08:20:34;;;;;;;3.38;1.30;;;;;;;18.14;78.99;94946.34;5052710;28;20422;-73
2021/08/07 08:23:00;;;;;;;4.63;1.33;;;;;;;18.10;79.09;94942.41;5051878;28;20952;-73
2021/08/07 08:25:25;;;;;;;3.22;1.60;;;;;;;18.08;79.31;94943.53;5052618;28;20500;-74
2021/08/07 08:27:51;;;;;;;2.80;1.45;;;;;;;18.09;80.72;94940.75;5052716;28;20452;-73
2021/08/07 08:30:17;;;;;;;2.38;1.33;;;;;;;17.97;80.33;94936.00;5052622;28;20433;-73
2021/08/07 08:32:43;;;;;;;4.00;1.33;;;;;;;17.88;82.16;94943.84;5045637;28;20425;-76
2021/08/07 08:35:10;;;;;;;2.05;1.48;;;;;;;18.02;81.12;94934.53;5040562;28;20955;-73
2021/08/07 08:37:36;;;;;;;2.63;1.37;;;;;;;18.14;80.53;94938.47;5031718;28;20423;-73
2021/08/07 08:40:01;;;;;;;2.77;1.30;;;;;;;18.34;81.84;94935.50;5045343;28;20427;-73
2021/08/07 08:42:27;;;;;;;2.23;1.17;;;;;;;18.45;81.25;94929.94;5049870;28;20882;-73
2021/08/07 08:44:52;;;;;;;2.42;1.27;;;;;;;18.54;82.13;94926.34;5041191;28;20419;-74
2021/08/07 08:47:20;;;;;;;10.23;2.17;;;;;;;18.49;79.00;94930.44;5051940;28;20421;-73
2021/08/07 08:49:46;;;;;;;4.13;1.40;;;;;;;18.54;79.12;94934.22;5052421;28;20950;-73
2021/08/07 08:52:14;;;;;;;3.17;1.48;;;;;;;18.48;78.25;94934.84;5052792;28;20500;-73
2021/08/07 08:54:41;;;;;;;1.80;1.30;;;;;;;18.43;78.70;94931.94;5052362;28;20923;-74
2021/08/07 08:57:06;;;;;;;3.25;1.48;;;;;;;18.46;80.61;94928.13;5051962;28;20413;-73
2021/08/07 08:59:31;;;;;;;3.63;1.43;;;;;;;18.55;80.05;94938.47;5051018;28;20802;-74
2021/08/07 09:01:57;;;;;;;4.77;1.23;;;;;;;18.52;79.84;94951.91;5051547;28;20504;-75
2021/08/07 09:04:23;;;;;;;2.08;1.30;;;;;;;18.48;78.88;94949.78;5051831;28;20455;-74
2021/08/07 09:06:48;;;;;;;2.60;1.63;;;;;;;18.33;79.85;94947.00;5051990;28;20417;-75
2021/08/07 09:09:15;;;;;;;2.63;1.23;;;;;;;18.47;80.47;94940.28;5052199;28;20998;-75
2021/08/07 09:11:47;;;;;;;3.83;1.48;;;;;;;18.52;80.24;94941.41;5051288;28;20409;-74
2021/08/07 09:14:23;;;;;;;3.78;1.40;;;;;;;18.45;79.28;94937.00;5045033;28;20952;-74
2021/08/07 09:17:10;;;;;;;6.78;1.88;;;;;;;18.42;79.93;94940.75;5042846;28;20527;-74
2021/08/07 09:19:56;;;;;;;2.67;1.50;;;;;;;18.50;80.61;94932.91;5047337;28;21100;-74
2021/08/07 09:22:25;;;;;;;5.03;1.40;;;;;;;18.55;82.57;94935.84;5042959;28;20464;-73
2021/08/07 09:25:01;;;;;;;3.33;1.70;;;;;;;18.59;80.04;94936.31;5044450;28;20511;-74
2021/08/07 09:27:31;;;;;;;3.58;1.40;;;;;;;18.76;81.08;94940.59;5043762;28;20417;-74
2021/08/07 09:29:57;;;;;;;4.13;1.60;;;;;;;18.80;79.05;94941.06;5048797;28;20475;-74
2021/08/07 09:32:23;;;;;;;4.47;1.50;;;;;;;18.78;80.42;94951.75;5051207;28;20799;-74
2021/08/07 09:35:07;;;;;;;4.05;1.60;;;;;;;18.57;78.95;94954.03;5049978;28;20421;-74
2021/08/07 09:37:32;;;;;;;4.15;1.40;;;;;;;18.43;80.06;94968.63;5036941;28;20491;-75
2021/08/07 09:40:00;;;;;;;1.65;1.13;;;;;;;18.50;82.10;94968.78;5050085;28;20930;-74
2021/08/07 09:42:27;;;;;;;4.53;1.73;;;;;;;18.33;83.28;94987.13;5050729;28;20420;-74
2021/08/07 09:44:59;;;;;;;4.13;1.77;;;;;;;18.22;85.19;94994.50;5047602;28;20421;-74
2021/08/07 09:47:24;;;;;;;3.55;1.52;;;;;;;18.20;86.67;94994.63;5038806;28;20422;-73
2021/08/07 09:49:50;;;;;;;11.23;2.17;;;;;;;18.14;88.95;94996.13;5048052;28;20891;-73
2021/08/07 09:52:16;;;;;;;5.18;2.30;;;;;;;18.18;89.78;94991.38;5047690;28;20429;-73
2021/08/07 09:54:42;;;;;;;9.53;3.20;;;;;;;18.17;92.75;94989.75;5051407;28;20448;-73
2021/08/07 09:57:21;;;;;;;5.57;2.92;;;;;;;18.11;92.00;94983.34;5046094;28;20423;-75
2021/08/07 09:59:48;;;;;;;7.40;2.45;;;;;;;18.14;95.53;94982.19;5033529;28;20912;-73
2021/08/07 10:02:22;;;;;;;4.25;2.03;;;;;;;18.14;92.46;94976.97;5030257;28;20431;-76
2021/08/07 10:04:48;;;;;;;2.65;1.63;;;;;;;17.96;94.29;94964.00;5036675;28;20470;-76
2021/08/07 10:07:13;;;;;;;3.57;1.80;;;;;;;17.94;94.02;94960.69;5029816;28;20459;-76
2021/08/07 10:09:39;;;;;;;4.80;2.05;;;;;;;17.67;95.74;94965.19;5029958;28;20924;-75
2021/08/07 10:12:06;;;;;;;2.42;1.60;;;;;;;17.58;96.99;94957.50;5030028;28;20514;-76
2021/08/07 10:14:33;;;;;;;2.85;1.80;;;;;;;17.45;97.92;94963.16;5029871;28;20446;-76
2021/08/07 10:17:01;;;;;;;5.38;2.30;;;;;;;17.30;99.09;94949.84;5037148;28;20445;-77
2021/08/07 10:19:27;;;;;;;5.40;1.80;;;;;;;17.23;100.00;94943.59;5040089;28;20411;-77
2021/08/07 10:21:53;;;;;;;4.57;1.73;;;;;;;17.11;100.00;94937.84;5043090;28;20416;-76
2021/08/07 10:24:19;;;;;;;4.75;2.10;;;;;;;17.09;100.00;94928.50;5040489;28;20924;-76
2021/08/07 10:26:45;;;;;;;14.32;1.95;;;;;;;17.12;100.00;94936.03;5043139;28;21001;-76
2021/08/07 10:29:12;;;;;;;4.28;2.00;;;;;;;17.11;100.00;94931.78;5050872;28;20980;-76
2021/08/07 10:31:40;;;;;;;5.93;2.13;;;;;;;17.10;100.00;94935.38;5049093;28;20953;-76
2021/08/07 10:34:08;;;;;;;5.90;1.90;;;;;;;17.07;100.00;94928.66;5049019;28;20413;-76
2021/08/07 10:36:35;;;;;;;4.22;1.63;;;;;;;17.12;100.00;94938.66;5048983;28;20780;-75
2021/08/07 10:39:05;;;;;;;5.15;2.15;;;;;;;17.13;100.00;94954.22;5050613;28;20972;-76
2021/08/07 10:41:31;;;;;;;4.85;2.38;;;;;;;16.98;100.00;94955.75;5046972;28;20510;-76
2021/08/07 10:43:58;;;;;;;2.63;1.85;;;;;;;17.00;100.00;94938.09;5033776;28;20473;-76
2021/08/07 10:46:25;;;;;;;6.20;2.20;;;;;;;16.89;100.00;94935.75;5029657;28;20423;-76
2021/08/07 10:48:52;;;;;;;4.05;2.13;;;;;;;16.65;100.00;94954.72;5050280;28;20422;-76
2021/08/07 10:51:38;;;;;;;4.32;2.50;;;;;;;16.67;100.00;94943.09;5050340;28;20803;-76
2021/08/07 10:54:07;;;;;;;6.65;2.22;;;;;;;16.69;100.00;94946.41;5049262;28;20457;-76
2021/08/07 10:56:38;;;;;;;8.18;2.28;;;;;;;16.39;100.00;94945.06;5050158;28;20425;-76
2021/08/07 10:59:19;;;;;;;6.60;2.00;;;;;;;16.33;100.00;94950.88;5047066;28;20417;-75
2021/08/07 11:01:46;;;;;;;4.65;1.92;;;;;;;16.19;100.00;94952.22;5046822;28;20452;-75
2021/08/07 11:04:16;;;;;;;3.25;1.70;;;;;;;16.15;100.00;94937.81;5050629;28;20416;-75
2021/08/07 11:07:10;;;;;;;3.72;2.00;;;;;;;16.05;100.00;94944.09;5050364;28;20420;-76
2021/08/07 11:09:38;;;;;;;4.30;2.30;;;;;;;16.21;100.00;94937.22;5049392;28;20483;-76
2021/08/07 11:12:19;;;;;;;4.95;2.28;;;;;;;16.19;100.00;94933.13;5048872;28;20425;-76
2021/08/07 11:14:47;;;;;;;5.43;2.03;;;;;;;16.22;100.00;94940.66;5045844;28;20786;-76
2021/08/07 11:17:27;;;;;;;9.65;1.88;;;;;;;16.27;100.00;94942.81;5048840;28;20425;-74
2021/08/07 11:20:00;;;;;;;4.28;2.30;;;;;;;16.35;100.00;94950.72;5039989;28;20480;-75
2021/08/07 11:23:08;;;;;;;2.78;1.90;;;;;;;16.38;100.00;94943.41;5029285;28;20423;-75
2021/08/07 11:26:01;;;;;;;4.05;2.00;;;;;;;16.39;100.00;94952.91;5029734;28;20423;-75
2021/08/07 11:28:27;;;;;;;3.45;1.90;;;;;;;16.38;100.00;94953.84;5034415;28;20533;-73